Informes de METARS cercanos

 

LEAL - Alicante/El Alte, Spain
Distance from station: SSE 60km
Actualización: 28/06/2022 20:00
Poco nuboso
Poco nuboso
 Viento del ESE
Viento: ESE 11 km/h
Temperatura: 25°C
Rocío: 20°C
Humedad: 74%
Barómetro: 1016 hPa
Clouds: Poco nuboso
Visibility: 10 km
Cloud details: Poco nuboso 488 m
2022/06/28 18:00 LEAL 281800Z 11006KT 080V150 9999 FEW016 25/20 Q1016 NOSIG
LEVC - Valencia (civ/Mi, Spain
Distance from station: NNE 84km
Actualización: 28/06/2022 20:00
Despejado
Despejado
 Viento del ESE
Viento: ESE 15 km/h
Temperatura: 28°C
Heat Index: 29°C
Rocío: 18°C
Humedad: 55%
Barómetro: 1014 hPa
Resumen: Despejado
Visibility: greater than 10 km
2022/06/28 18:00 LEVC 281800Z 11008KT 050V140 CAVOK 28/18 Q1014 NOSIG
 
LEAB - Albacete (civ/Mi, Spain
Distance from station: O 95km
Actualización: 28/06/2022 20:00
Despejado
Despejado
 Viento del varies
Viento: varies 7 km/h
Temperatura: 31°C
Rocío: 11°C
Humedad: 29%
Barómetro: 1016 hPa
Resumen: Despejado
Visibility: greater than 10 km
2022/06/28 18:00 LEAB 281800Z VRB04KT CAVOK 31/11 Q1016 NOSIG
LERI - Alcantarilla(Sp-, Spain
Distance from station: SSO 100km
Actualización: 28/06/2022 20:00
Despejado
Despejado
 Viento del SE
Viento: SE 24 km/h
Temperatura: 29°C
Heat Index: 29°C
Rocío: 16°C
Humedad: 45%
Barómetro: 1015 hPa
Resumen: Despejado
Visibility: greater than 10 km
2022/06/28 18:00 LERI 281800Z 14013KT 110V170 CAVOK 29/16 Q1015 NOSIG
 
LELC - San Javier(Mil/C, Spain
Distance from station: S 113km
Actualización: 28/06/2022 20:00
Despejado
Despejado
 Viento del SE
Viento: SE 13 km/h
Temperatura: 26°C
Rocío: 22°C
Humedad: 79%
Barómetro: 1016 hPa
Resumen: Despejado
Visibility: greater than 10 km
2022/06/28 18:00 LELC 281800Z 13007KT 100V160 CAVOK 26/22 Q1016 NOSIG
LEIB - Ibiza/Es Codola, Spain
Distance from station: E 186km
Actualización: 28/06/2022 20:00
Poco nuboso
Poco nuboso
 Viento del varies
Viento: varies 6 km/h
Temperatura: 27°C
Heat Index: 29°C
Rocío: 20°C
Humedad: 66%
Barómetro: 1015 hPa
Clouds: Poco nuboso
Visibility: 10 km
Cloud details: Poco nuboso 823 m
2022/06/28 18:00 LEIB 281800Z VRB03KT 9999 FEW027 27/20 Q1015 NOSIG
 
LEAM - Almeria Airport, Spain
Distance from station: SSO 256km
Actualización: 28/06/2022 20:00
Despejado
Despejado
 Viento del SO
Viento: SO 11 km/h
Temperatura: 25°C
Rocío: 20°C
Humedad: 74%
Barómetro: 1015 hPa
Resumen: Despejado
Visibility: greater than 10 km
2022/06/28 18:00 LEAM 281800Z 23006KT 190V260 CAVOK 25/20 Q1015
LEMD - Madrid/Barajas, Spain
Distance from station: NO 305km
Actualización: 28/06/2022 20:00
Despejado
Despejado
 Viento del SO
Viento: SO 17 km/h
Temperatura: 32°C
Rocío: 1°C
Humedad: 14%
Barómetro: 1016 hPa
Resumen: Despejado
Visibility: greater than 10 km
2022/06/28 18:00 LEMD 281800Z 22009KT 160V280 CAVOK 32/01 Q1016 NOSIG
 
LEPA - Palma De Mallorc, Spain
Distance from station: ENE 313km
Actualización: 28/06/2022 20:00
Poco nuboso
Poco nuboso
 Viento del OSO
Viento: OSO 24 km/h
Temperatura: 26°C
Rocío: 19°C
Humedad: 65%
Barómetro: 1015 hPa
Clouds: Poco nuboso
Visibility: 10 km
Cloud details: Poco nuboso 732 m
2022/06/28 18:00 LEPA 281800Z 24013KT 200V260 9999 FEW024 26/19 Q1015 NOSIG